createdAt,value
2023-04-24T00:01:22.956Z,1.47
2023-04-24T00:03:51.697Z,1.77
2023-04-24T00:06:20.116Z,1.80
2023-04-24T00:08:48.249Z,1.60
2023-04-24T00:11:16.454Z,1.57
2023-04-24T00:13:44.608Z,1.87
2023-04-24T00:16:14.178Z,1.90
2023-04-24T00:18:42.402Z,2.17
2023-04-24T00:21:10.643Z,2.40
2023-04-24T00:23:38.844Z,2.83
2023-04-24T00:26:07.107Z,3.87
2023-04-24T00:28:35.293Z,3.50
2023-04-24T00:31:03.488Z,3.90
2023-04-24T00:33:32.990Z,3.83
2023-04-24T00:36:01.147Z,3.57
2023-04-24T00:38:29.289Z,3.60
2023-04-24T00:40:57.442Z,4.00
2023-04-24T00:43:25.615Z,3.80
2023-04-24T00:45:53.896Z,4.73
2023-04-24T00:48:23.038Z,4.00
2023-04-24T00:50:52.534Z,4.50
2023-04-24T00:53:20.910Z,5.17
2023-04-24T00:55:49.232Z,4.53
2023-04-24T00:58:17.528Z,5.10
2023-04-24T01:00:47.154Z,4.60
2023-04-24T01:03:15.826Z,5.17
2023-04-24T01:05:44.300Z,5.57
2023-04-24T01:08:13.828Z,4.93
2023-04-24T01:10:43.453Z,4.93
2023-04-24T01:13:11.642Z,5.40
2023-04-24T01:15:39.847Z,5.23
2023-04-24T01:18:08.135Z,5.37
2023-04-24T01:20:37.662Z,5.57
2023-04-24T01:23:07.217Z,5.77
2023-04-24T01:25:35.553Z,5.20
2023-04-24T01:28:03.759Z,5.60
2023-04-24T01:30:33.788Z,4.83
2023-04-24T01:33:02.049Z,5.50
2023-04-24T01:35:30.338Z,5.10
2023-04-24T01:37:58.524Z,5.33
2023-04-24T01:40:28.104Z,5.27
2023-04-24T01:42:56.297Z,5.40
2023-04-24T01:45:24.439Z,5.13
2023-04-24T01:47:52.754Z,6.43
2023-04-24T01:50:21.063Z,5.60
2023-04-24T01:52:49.253Z,6.00
2023-04-24T01:55:17.441Z,5.80
2023-04-24T01:57:47.005Z,5.97
2023-04-24T02:00:15.425Z,5.90
2023-04-24T02:02:46.443Z,5.30
2023-04-24T02:05:16.305Z,5.70
2023-04-24T02:07:44.469Z,5.50
2023-04-24T02:10:13.090Z,5.13
2023-04-24T02:12:41.282Z,5.60
2023-04-24T02:15:11.290Z,5.67
2023-04-24T02:17:39.626Z,5.23
2023-04-24T02:20:08.612Z,5.53
2023-04-24T02:22:36.865Z,5.97
2023-04-24T02:25:06.032Z,6.83
2023-04-24T02:27:34.218Z,6.27
2023-04-24T02:30:02.529Z,5.43
2023-04-24T02:32:32.196Z,6.13
2023-04-24T02:35:00.436Z,6.50
2023-04-24T02:37:28.758Z,7.20
2023-04-24T02:39:56.916Z,6.80
2023-04-24T02:42:25.198Z,6.20
2023-04-24T02:44:53.362Z,6.40
2023-04-24T02:47:21.617Z,6.37
2023-04-24T02:49:51.155Z,6.53
2023-04-24T02:52:19.323Z,6.97
2023-04-24T02:54:47.488Z,6.57
2023-04-24T02:57:16.010Z,6.30
2023-04-24T02:59:44.418Z,6.93
2023-04-24T03:02:12.751Z,6.50
2023-04-24T03:04:43.836Z,6.83
2023-04-24T03:07:13.648Z,6.20
2023-04-24T03:09:42.009Z,6.20
2023-04-24T03:12:10.322Z,6.10
2023-04-24T03:14:38.524Z,5.60
2023-04-24T03:17:06.676Z,6.23
2023-04-24T03:19:34.854Z,6.20
2023-04-24T03:22:04.327Z,6.80
2023-04-24T03:24:33.968Z,6.30
2023-04-24T03:27:02.289Z,6.87
2023-04-24T03:29:30.534Z,6.43
2023-04-24T03:31:58.712Z,6.00
2023-04-24T03:34:26.921Z,6.60
2023-04-24T03:36:55.067Z,6.20
2023-04-24T03:39:23.249Z,6.57
2023-04-24T03:41:52.772Z,6.07
2023-04-24T03:44:20.911Z,6.67
2023-04-24T03:46:49.070Z,6.07
2023-04-24T03:49:17.222Z,6.87
2023-04-24T03:51:45.380Z,6.73
2023-04-24T03:54:14.700Z,6.13
2023-04-24T03:56:42.850Z,6.60
2023-04-24T03:59:12.355Z,7.03
2023-04-24T04:01:41.678Z,7.10
2023-04-24T04:04:11.752Z,6.90
2023-04-24T04:06:40.086Z,6.63
2023-04-24T04:09:08.251Z,6.67
2023-04-24T04:11:37.335Z,7.53
2023-04-24T04:14:06.247Z,6.90
2023-04-24T04:16:37.194Z,7.23
2023-04-24T04:19:06.406Z,7.13
2023-04-24T04:21:34.601Z,7.37
2023-04-24T04:24:02.785Z,7.30
2023-04-24T04:26:33.533Z,7.13
2023-04-24T04:29:02.242Z,7.50
2023-04-24T04:31:30.459Z,7.70
2023-04-24T04:34:00.041Z,7.67
2023-04-24T04:36:30.293Z,8.60
2023-04-24T04:39:00.260Z,7.93
2023-04-24T04:41:28.408Z,8.00
2023-04-24T04:43:59.480Z,7.27
2023-04-24T04:46:28.010Z,7.13
2023-04-24T04:48:57.588Z,7.87
2023-04-24T04:51:27.142Z,8.63
2023-04-24T04:53:55.305Z,8.17
2023-04-24T04:56:23.524Z,7.50
2023-04-24T04:58:51.728Z,7.20
2023-04-24T05:01:19.940Z,7.60
2023-04-24T05:03:48.286Z,7.27
2023-04-24T05:06:16.975Z,6.97
2023-04-24T05:08:46.991Z,6.27
2023-04-24T05:11:15.828Z,5.67
2023-04-24T05:13:43.971Z,5.93
2023-04-24T05:16:12.133Z,5.83
2023-04-24T05:18:40.301Z,5.50
2023-04-24T05:21:08.468Z,5.07
2023-04-24T05:23:36.634Z,4.73
2023-04-24T05:26:07.835Z,4.97
2023-04-24T05:28:37.611Z,5.00
2023-04-24T05:31:06.101Z,5.27
2023-04-24T05:33:34.311Z,5.97
2023-04-24T05:36:02.514Z,5.07
2023-04-24T05:38:30.675Z,5.33
2023-04-24T05:40:58.863Z,5.80
2023-04-24T05:43:28.350Z,5.60
2023-04-24T05:45:56.576Z,5.50
2023-04-24T05:48:24.839Z,5.30
2023-04-24T05:50:53.624Z,5.40
2023-04-24T05:53:21.916Z,4.53
2023-04-24T05:55:50.602Z,5.03
2023-04-24T05:58:18.777Z,5.53
2023-04-24T06:00:48.901Z,5.20
2023-04-24T06:03:17.573Z,5.10
2023-04-24T06:05:46.150Z,5.57
2023-04-24T06:08:14.576Z,5.63
2023-04-24T06:10:45.762Z,5.00
2023-04-24T06:13:14.147Z,5.13
2023-04-24T06:15:42.532Z,4.30
2023-04-24T06:18:13.827Z,4.60
2023-04-24T06:20:42.058Z,4.57
2023-04-24T06:23:10.276Z,4.00
2023-04-24T06:25:38.615Z,3.70
2023-04-24T06:28:06.897Z,4.60
2023-04-24T06:30:35.206Z,3.43
2023-04-24T06:33:16.831Z,3.80
2023-04-24T06:35:49.314Z,3.23
2023-04-24T06:38:17.913Z,5.10
2023-04-24T06:40:46.120Z,6.20
2023-04-24T06:43:15.797Z,3.83
2023-04-24T06:45:44.764Z,5.67
2023-04-24T06:48:13.084Z,3.90
2023-04-24T06:50:41.368Z,5.20
2023-04-24T06:53:12.040Z,4.33
2023-04-24T06:55:40.216Z,4.10
2023-04-24T06:58:08.932Z,3.50
2023-04-24T07:00:37.200Z,4.00
2023-04-24T07:03:06.379Z,3.33
2023-04-24T07:05:36.167Z,3.63
2023-04-24T07:08:04.428Z,3.57
2023-04-24T07:10:36.548Z,3.13
2023-04-24T07:13:04.708Z,5.00
2023-04-24T07:15:33.338Z,3.57
2023-04-24T07:18:04.068Z,3.43
2023-04-24T07:20:34.124Z,4.43
2023-04-24T07:23:02.304Z,5.13
2023-04-24T07:25:30.469Z,5.40
2023-04-24T07:27:59.961Z,3.83
2023-04-24T07:30:29.739Z,4.47
2023-04-24T07:32:57.898Z,4.30
2023-04-24T07:35:26.962Z,4.00
2023-04-24T07:37:55.490Z,4.23
2023-04-24T07:40:24.112Z,5.17
2023-04-24T07:42:52.286Z,4.60
2023-04-24T07:45:21.870Z,4.63
2023-04-24T07:47:50.110Z,4.83
2023-04-24T07:50:18.358Z,7.13
2023-04-24T07:52:46.537Z,5.53
2023-04-24T07:55:14.702Z,4.90
2023-04-24T07:57:42.884Z,4.73
2023-04-24T08:00:11.589Z,7.17
2023-04-24T08:02:41.326Z,6.13
2023-04-24T08:05:10.187Z,5.70
2023-04-24T08:07:38.602Z,5.57
2023-04-24T08:10:07.242Z,6.00
2023-04-24T08:12:35.466Z,6.07
2023-04-24T08:15:03.695Z,6.23
2023-04-24T08:17:34.697Z,6.23
2023-04-24T08:20:05.939Z,5.70
2023-04-24T08:22:34.130Z,5.87
2023-04-24T08:25:02.783Z,5.27
2023-04-24T08:27:31.068Z,5.10
2023-04-24T08:29:59.857Z,5.10
2023-04-24T08:32:29.824Z,4.80
2023-04-24T08:34:58.264Z,4.47
2023-04-24T08:37:28.762Z,4.50
2023-04-24T08:39:56.976Z,4.40
2023-04-24T08:42:25.362Z,4.60
2023-04-24T08:44:53.629Z,4.73
2023-04-24T08:47:22.846Z,4.47
2023-04-24T08:49:52.501Z,4.40
2023-04-24T08:52:21.097Z,5.63
2023-04-24T08:54:50.610Z,6.20
2023-04-24T08:57:19.153Z,6.70
2023-04-24T08:59:47.423Z,7.50
2023-04-24T09:02:16.230Z,8.03
2023-04-24T09:04:45.917Z,8.63
2023-04-24T09:07:14.966Z,8.13
2023-04-24T09:09:43.604Z,7.67
2023-04-24T09:12:14.072Z,7.80
2023-04-24T09:14:45.924Z,6.47
2023-04-24T09:17:14.435Z,7.63
2023-04-24T09:19:43.021Z,7.80
2023-04-24T09:22:12.213Z,7.83
2023-04-24T09:24:41.260Z,7.23
2023-04-24T09:27:11.251Z,8.23
2023-04-24T09:29:40.986Z,8.43
2023-04-24T09:32:22.574Z,9.00
2023-04-24T09:34:51.893Z,6.83
2023-04-24T09:37:30.852Z,6.73
2023-04-24T09:40:16.968Z,7.13
2023-04-24T09:42:48.665Z,6.50
2023-04-24T09:45:18.674Z,6.57
2023-04-24T09:47:47.155Z,6.10
2023-04-24T09:50:16.452Z,6.00
2023-04-24T09:52:46.317Z,5.57
2023-04-24T09:55:19.463Z,5.53
2023-04-24T09:57:52.195Z,5.63
2023-04-24T10:00:24.291Z,6.87
2023-04-24T10:02:53.995Z,5.70
2023-04-24T10:05:25.456Z,4.83
2023-04-24T10:07:53.974Z,4.53
2023-04-24T10:10:22.203Z,4.27
2023-04-24T10:12:50.456Z,4.10
2023-04-24T10:15:22.153Z,4.20
2023-04-24T10:17:53.344Z,4.20
2023-04-24T10:20:23.004Z,4.30
2023-04-24T10:22:54.765Z,4.43
2023-04-24T10:25:23.510Z,4.23
2023-04-24T10:27:52.147Z,4.50
2023-04-24T10:30:20.707Z,4.50
2023-04-24T10:32:48.954Z,5.07
2023-04-24T10:35:23.089Z,4.63
2023-04-24T10:37:53.580Z,4.60
2023-04-24T10:40:26.972Z,4.60
2023-04-24T10:42:58.093Z,4.67
2023-04-24T10:45:27.275Z,4.73
2023-04-24T10:47:56.398Z,4.90
2023-04-24T10:50:26.049Z,5.47
2023-04-24T10:52:55.630Z,5.13
2023-04-24T10:55:42.481Z,5.53
2023-04-24T10:58:10.723Z,5.63
2023-04-24T11:00:39.960Z,5.70
2023-04-24T11:03:08.652Z,5.70
2023-04-24T11:05:54.742Z,6.03
2023-04-24T11:08:26.991Z,5.53
2023-04-24T11:10:59.332Z,5.93
2023-04-24T11:13:28.141Z,6.70
2023-04-24T11:16:11.239Z,6.83
2023-04-24T11:18:46.072Z,5.97
2023-04-24T11:21:15.823Z,5.43
2023-04-24T11:23:45.063Z,5.93
2023-04-24T11:26:14.246Z,6.17
2023-04-24T11:28:52.093Z,5.93
2023-04-24T11:31:39.620Z,5.13
2023-04-24T11:34:11.965Z,4.80
2023-04-24T11:36:41.832Z,4.90
2023-04-24T11:39:10.930Z,4.80
2023-04-24T11:41:39.480Z,5.87
2023-04-24T11:44:09.389Z,4.80
2023-04-24T11:46:38.956Z,4.33
2023-04-24T11:49:07.881Z,5.10
2023-04-24T11:51:51.099Z,3.93
2023-04-24T11:54:22.917Z,4.47
2023-04-24T11:56:52.053Z,4.87
2023-04-24T11:59:20.343Z,4.43
2023-04-24T12:01:48.674Z,4.77
2023-04-24T12:04:17.719Z,4.57
2023-04-24T12:07:00.975Z,4.60
2023-04-24T12:09:30.582Z,4.70
2023-04-24T12:11:59.310Z,4.57
2023-04-24T12:14:27.495Z,5.00
2023-04-24T12:16:56.144Z,4.70
2023-04-24T12:19:24.729Z,4.23
2023-04-24T12:22:02.448Z,4.33
2023-04-24T12:24:32.180Z,4.47
2023-04-24T12:27:02.342Z,4.23
2023-04-24T12:29:30.530Z,4.83
2023-04-24T12:31:58.752Z,4.37
2023-04-24T12:34:27.964Z,4.60
2023-04-24T12:36:56.111Z,4.63
2023-04-24T12:39:27.571Z,4.37
2023-04-24T12:42:00.774Z,4.47
2023-04-24T12:44:32.624Z,4.80
2023-04-24T12:47:00.841Z,4.20
2023-04-24T12:49:29.109Z,4.97
2023-04-24T12:51:57.300Z,4.40
2023-04-24T12:54:25.536Z,4.17
2023-04-24T12:56:53.702Z,3.90
2023-04-24T12:59:23.182Z,3.90
2023-04-24T13:01:51.776Z,4.60
2023-04-24T13:04:20.117Z,3.93
2023-04-24T13:06:48.365Z,4.00
2023-04-24T13:09:16.519Z,3.80
2023-04-24T13:11:44.694Z,3.40
2023-04-24T13:14:12.863Z,4.20
2023-04-24T13:16:42.420Z,4.20
2023-04-24T13:19:10.635Z,4.47
2023-04-24T13:21:38.809Z,3.77
2023-04-24T13:24:08.729Z,4.03
2023-04-24T13:26:36.877Z,4.03
2023-04-24T13:29:05.271Z,4.20
2023-04-24T13:31:33.472Z,3.43
2023-04-24T13:34:03.035Z,4.57
2023-04-24T13:36:31.262Z,4.13
2023-04-24T13:38:59.445Z,4.80
2023-04-24T13:41:27.664Z,4.80
2023-04-24T13:43:55.808Z,4.47
2023-04-24T13:46:23.968Z,3.87
2023-04-24T13:48:52.242Z,4.23
2023-04-24T13:51:21.800Z,4.17
2023-04-24T13:53:49.961Z,4.53
2023-04-24T13:56:18.239Z,4.30
2023-04-24T13:58:46.562Z,4.23
2023-04-24T14:01:15.869Z,4.50
2023-04-24T14:03:44.981Z,4.30
2023-04-24T14:06:13.517Z,4.00
2023-04-24T14:08:43.026Z,4.37
2023-04-24T14:11:11.253Z,4.60
2023-04-24T14:13:39.588Z,4.20
2023-04-24T14:16:08.126Z,4.30
2023-04-24T14:18:37.123Z,3.90
2023-04-24T14:21:05.393Z,3.90
2023-04-24T14:23:33.630Z,4.40
2023-04-24T14:26:03.408Z,4.23
2023-04-24T14:28:31.572Z,4.50
2023-04-24T14:30:59.762Z,4.07
2023-04-24T14:33:27.973Z,3.87
2023-04-24T14:35:56.272Z,4.10
2023-04-24T14:38:24.758Z,3.60
2023-04-24T14:41:06.395Z,3.80
2023-04-24T14:43:37.543Z,3.33
2023-04-24T14:46:05.861Z,3.37
2023-04-24T14:48:34.055Z,3.53
2023-04-24T14:51:02.189Z,3.60
2023-04-24T14:53:30.683Z,4.13
2023-04-24T14:55:58.889Z,3.90
2023-04-24T14:58:27.075Z,3.73
2023-04-24T15:00:56.635Z,3.90
2023-04-24T15:03:25.077Z,3.70
2023-04-24T15:05:53.400Z,3.60
2023-04-24T15:08:21.659Z,3.80
2023-04-24T15:10:49.994Z,4.03
2023-04-24T15:13:18.262Z,4.20
2023-04-24T15:15:49.166Z,4.33
2023-04-24T15:18:18.665Z,4.33
2023-04-24T15:20:46.920Z,4.00
2023-04-24T15:23:15.465Z,4.20
2023-04-24T15:25:43.909Z,4.20
2023-04-24T15:28:12.306Z,3.80
2023-04-24T15:30:40.474Z,3.50
2023-04-24T15:33:08.712Z,3.67
2023-04-24T15:35:38.556Z,4.17
2023-04-24T15:38:06.747Z,4.03
2023-04-24T15:40:34.930Z,4.10
2023-04-24T15:43:03.090Z,3.83
2023-04-24T15:45:31.314Z,4.20
2023-04-24T15:47:59.612Z,3.87
2023-04-24T15:50:29.131Z,4.17
2023-04-24T15:52:58.636Z,3.60
2023-04-24T15:55:26.808Z,3.30
2023-04-24T15:57:55.005Z,3.60
2023-04-24T16:00:23.216Z,4.07
2023-04-24T16:02:51.705Z,3.87
2023-04-24T16:05:22.711Z,4.00
2023-04-24T16:07:51.594Z,3.90
2023-04-24T16:10:21.266Z,3.83
2023-04-24T16:12:50.353Z,3.70
2023-04-24T16:15:18.608Z,4.70
2023-04-24T16:17:46.910Z,3.87
2023-04-24T16:20:15.438Z,3.80
2023-04-24T16:22:43.611Z,4.43
2023-04-24T16:25:12.055Z,3.73
2023-04-24T16:27:41.558Z,3.80
2023-04-24T16:30:10.480Z,4.80
2023-04-24T16:32:38.687Z,4.40
2023-04-24T16:35:07.174Z,3.63
2023-04-24T16:37:35.490Z,3.63
2023-04-24T16:40:05.033Z,4.00
2023-04-24T16:42:33.194Z,3.40
2023-04-24T16:45:02.886Z,3.63
2023-04-24T16:47:31.247Z,4.07
2023-04-24T16:49:59.463Z,3.40
2023-04-24T16:52:27.843Z,3.67
2023-04-24T16:54:56.052Z,3.27
2023-04-24T16:57:24.279Z,4.00
2023-04-24T16:59:52.454Z,3.20
2023-04-24T17:02:22.004Z,4.00
2023-04-24T17:04:50.221Z,3.80
2023-04-24T17:07:18.614Z,3.70
2023-04-24T17:09:46.846Z,3.67
2023-04-24T17:12:15.035Z,3.50
2023-04-24T17:14:43.159Z,3.90
2023-04-24T17:17:11.699Z,3.40
2023-04-24T17:19:41.219Z,3.93
2023-04-24T17:22:09.397Z,3.73
2023-04-24T17:24:37.795Z,3.63
2023-04-24T17:27:14.383Z,3.07
2023-04-24T17:29:43.056Z,3.60
2023-04-24T17:32:11.322Z,5.03
2023-04-24T17:34:41.037Z,5.50
2023-04-24T17:37:09.227Z,5.70
2023-04-24T17:39:37.429Z,6.10
2023-04-24T17:42:05.893Z,7.57
2023-04-24T17:44:34.060Z,7.47
2023-04-24T17:47:03.886Z,6.87
2023-04-24T17:49:32.725Z,7.73
2023-04-24T17:52:02.210Z,7.27
2023-04-24T17:54:30.371Z,7.60
2023-04-24T17:56:58.645Z,8.07
2023-04-24T17:59:26.977Z,7.80
2023-04-24T18:01:55.264Z,8.43
2023-04-24T18:04:23.630Z,8.33
2023-04-24T18:06:51.847Z,8.30
2023-04-24T18:09:21.692Z,7.73
2023-04-24T18:11:50.159Z,8.57
2023-04-24T18:14:18.357Z,7.83
2023-04-24T18:16:46.538Z,8.20
2023-04-24T18:19:14.734Z,7.53
2023-04-24T18:21:42.889Z,8.20
2023-04-24T18:24:11.112Z,8.90
2023-04-24T18:26:40.609Z,8.27
2023-04-24T18:29:08.761Z,8.53
2023-04-24T18:31:37.031Z,8.53
2023-04-24T18:34:05.246Z,7.77
2023-04-24T18:36:33.621Z,8.77
2023-04-24T18:39:01.828Z,6.70
2023-04-24T18:41:30.005Z,4.80
2023-04-24T18:43:59.567Z,4.17
2023-04-24T18:46:27.789Z,3.73
2023-04-24T18:48:56.324Z,3.10
2023-04-24T18:51:24.528Z,3.20
2023-04-24T18:53:53.094Z,3.30
2023-04-24T18:56:21.272Z,2.87
2023-04-24T18:58:49.858Z,2.80
2023-04-24T19:01:19.728Z,3.43
2023-04-24T19:03:48.120Z,3.07
2023-04-24T19:06:16.316Z,3.00
2023-04-24T19:08:44.886Z,2.97
2023-04-24T19:11:13.306Z,2.70
2023-04-24T19:13:41.846Z,2.70
2023-04-24T19:16:10.033Z,2.77
2023-04-24T19:18:39.547Z,3.17
2023-04-24T19:21:07.746Z,3.10
2023-04-24T19:23:39.543Z,3.20
2023-04-24T19:26:07.760Z,3.10
2023-04-24T19:28:37.252Z,3.13
2023-04-24T19:31:07.185Z,3.47
2023-04-24T19:33:35.455Z,3.00
2023-04-24T19:36:05.618Z,2.93
2023-04-24T19:38:33.802Z,3.47
2023-04-24T19:41:01.992Z,3.33
2023-04-24T19:43:30.211Z,3.10
2023-04-24T19:45:58.614Z,3.23
2023-04-24T19:48:30.888Z,2.83
2023-04-24T19:50:59.096Z,2.77
2023-04-24T19:53:28.830Z,3.50
2023-04-24T19:55:57.423Z,2.90
2023-04-24T19:58:25.605Z,3.20
2023-04-24T20:00:53.778Z,3.17
2023-04-24T20:03:32.922Z,3.80
2023-04-24T20:06:02.082Z,3.10
2023-04-24T20:08:31.667Z,2.77
2023-04-24T20:11:00.754Z,3.43
2023-04-24T20:13:31.557Z,3.40
2023-04-24T20:15:59.918Z,4.03
2023-04-24T20:18:28.223Z,3.63
2023-04-24T20:20:59.506Z,3.87
2023-04-24T20:23:27.813Z,4.13
2023-04-24T20:25:58.810Z,3.50
2023-04-24T20:28:27.154Z,3.80
2023-04-24T20:30:55.384Z,3.60
2023-04-24T20:33:23.686Z,3.77
2023-04-24T20:35:52.357Z,3.70
2023-04-24T20:38:22.291Z,4.27
2023-04-24T20:40:57.697Z,4.13
2023-04-24T20:43:29.036Z,3.73
2023-04-24T20:45:58.435Z,3.70
2023-04-24T20:48:27.287Z,3.90
2023-04-24T20:50:55.883Z,4.53
2023-04-24T20:53:24.182Z,3.67
2023-04-24T20:55:52.389Z,4.27
2023-04-24T20:58:22.011Z,4.00
2023-04-24T21:00:52.629Z,3.40
2023-04-24T21:03:21.217Z,3.70
2023-04-24T21:05:49.497Z,3.83
2023-04-24T21:08:17.664Z,4.30
2023-04-24T21:10:45.990Z,4.00
2023-04-24T21:13:14.131Z,4.03
2023-04-24T21:15:42.286Z,3.70
2023-04-24T21:18:11.891Z,3.80
2023-04-24T21:20:40.320Z,3.40
2023-04-24T21:23:08.532Z,4.20
2023-04-24T21:25:36.724Z,4.20
2023-04-24T21:28:04.970Z,4.03
2023-04-24T21:30:33.218Z,4.30
2023-04-24T21:33:01.523Z,3.83
2023-04-24T21:35:31.127Z,4.40
2023-04-24T21:37:59.295Z,3.43
2023-04-24T21:40:27.452Z,4.23
2023-04-24T21:42:55.726Z,4.00
2023-04-24T21:45:24.222Z,3.97
2023-04-24T21:47:52.451Z,4.20
2023-04-24T21:50:20.691Z,3.70
2023-04-24T21:52:50.217Z,3.77
2023-04-24T21:55:18.497Z,3.97
2023-04-24T21:57:46.751Z,4.33
2023-04-24T22:00:15.083Z,3.63
2023-04-24T22:02:43.742Z,3.33
2023-04-24T22:05:15.623Z,3.40
2023-04-24T22:07:46.690Z,3.93
2023-04-24T22:10:18.227Z,3.90
2023-04-24T22:12:48.808Z,3.73
2023-04-24T22:15:16.999Z,3.73
2023-04-24T22:17:49.686Z,3.57
2023-04-24T22:20:17.979Z,3.37
2023-04-24T22:22:46.267Z,3.47
2023-04-24T22:25:15.145Z,3.93
2023-04-24T22:27:45.739Z,3.07
2023-04-24T22:30:14.361Z,4.10
2023-04-24T22:32:42.653Z,3.50
2023-04-24T22:35:13.700Z,3.50
2023-04-24T22:37:41.848Z,3.80
2023-04-24T22:40:10.462Z,3.30
2023-04-24T22:42:38.664Z,3.80
2023-04-24T22:45:11.515Z,3.30
2023-04-24T22:47:39.782Z,3.60
2023-04-24T22:50:08.844Z,3.77
2023-04-24T22:52:37.006Z,3.80
2023-04-24T22:55:05.640Z,3.63
2023-04-24T22:57:33.840Z,3.43
2023-04-24T23:00:02.051Z,3.70
2023-04-24T23:02:32.276Z,3.30
2023-04-24T23:05:00.504Z,3.30
2023-04-24T23:07:28.978Z,3.90
2023-04-24T23:09:57.148Z,3.67
2023-04-24T23:12:25.329Z,3.70
2023-04-24T23:14:53.481Z,3.83
2023-04-24T23:17:21.711Z,3.73
2023-04-24T23:19:53.872Z,3.63
2023-04-24T23:22:22.066Z,3.67
2023-04-24T23:24:50.589Z,3.83
2023-04-24T23:27:18.744Z,3.43
2023-04-24T23:29:46.904Z,3.50
2023-04-24T23:32:15.217Z,4.47
2023-04-24T23:34:43.462Z,3.83
2023-04-24T23:37:13.162Z,3.77
2023-04-24T23:39:41.360Z,4.17
2023-04-24T23:42:09.530Z,3.63
2023-04-24T23:44:37.898Z,3.30
2023-04-24T23:47:06.044Z,3.50
2023-04-24T23:49:34.259Z,3.33
2023-04-24T23:52:03.124Z,3.80
2023-04-24T23:54:32.628Z,4.10
2023-04-24T23:57:00.773Z,3.90
2023-04-24T23:59:30.750Z,4.37
